Aviation Digital Data Service (ADDS)

Output produced by METARs form (1843 UTC 18 June 2019)
found at http://www.aviationweather.gov/metar/data/
 
KBBG 181745Z 00000KT 10SM FEW028 BKN039 BKN250 25/19 A2996
KBBG 181720Z 1818/1918 VRB04KT P6SM BKN050 
     FM182100 VRB04KT P6SM BKN250 
     FM190800 VRB04KT P6SM VCTS SCT025 BKN050CB 
     TEMPO 1908/1912 4SM -TSRA BR OVC025CB 
     FM191200 18008KT 4SM -TSRA BR OVC025CB 
     FM191400 19010KT P6SM OVC025
       
KFWB 181835Z AUTO 00000KT 10SM SCT030 BKN043 OVC050 25/21 A2995 RMK AO2
KEZZ 181835Z AUTO 14005KT 10SM SCT030 25/17 A2994 RMK AO2 T02520173
KCGI 181753Z 00000KT 10SM BKN030 BKN043 OVC100 27/19 A2990 RMK AO2 SLP121 T02720194 10278 20222 58005
KCGI 181720Z 1818/1918 VRB03KT P6SM SCT035 
     FM182200 VRB03KT P6SM VCSH SCT040 BKN200 
     FM190000 VRB03KT P6SM FEW030 SCT080 
     FM191400 22008KT P6SM SCT030
       
KGLY 181815Z AUTO 17006KT 10SM BKN035 26/19 A2994 RMK AO2
KCOU 181811Z 01008KT 10SM SCT029 BKN034 24/19 A2994 RMK AO2 T02440189
KCOU 181735Z 1818/1918 VRB04KT P6SM BKN025 
     FM190100 VRB03KT P6SM SCT120 BKN250 
     FM190800 VRB04KT P6SM VCSH BKN030 
     FM191200 15007KT 4SM -RA BR VCTS OVC015CB
       
KFAM 181756Z AUTO 12006KT 10SM FEW025 BKN050 BKN065 26/21 A2993 RMK AO2 SLP138 T02560206 10261 20211 58006
KTBN 181756Z AUTO 00000KT 10SM FEW021 FEW031 SCT160 25/19 A2994 RMK AO2 SLP132 T02490190 10249 20188 55005
KLRY 181835Z AUTO 00000KT 7SM BKN025 BKN030 A2996 RMK AO2
KJLN 181753Z VRB05KT 10SM CLR 27/20 A2994 RMK AO2 SLP127 T02720200 10272 20178 58002
KJLN 181720Z 1818/1918 VRB04KT P6SM SCT050 
     FM190300 VRB04KT P6SM VCTS SCT025 BKN050CB 
     TEMPO 1903/1906 4SM -TSRA BR OVC025CB 
     FM190600 18006KT 4SM -TSRA BR OVC025CB 
     FM191400 22008KT P6SM OVC015
       
KAIZ 181818Z AUTO VRB04KT 9SM FEW023 SCT050 25/19 A2994 RMK AO2
KMKC 181754Z 06006KT 10SM FEW032 27/17 A2992 RMK AO2 SLP124 T02670167 10272 20194 58008
KMKC 181731Z 1818/1918 12005KT P6SM SCT035 BKN200 
     FM190300 VRB04KT P6SM VCTS BKN035CB 
     TEMPO 1903/1907 3SM TSRA BR OVC025CB 
     FM190800 09005KT 6SM BR BKN025 
     FM191100 05005KT 6SM BR OVC007 
     FM191600 04005KT 6SM BR OVC015
       
KMCI 181753Z 06006KT 10SM FEW029 SCT140 SCT250 26/18 A2993 RMK AO2 SLP127 T02560178 10256 20183 58007 $
KMCI 181731Z 1818/1918 12005KT P6SM SCT035 BKN200 
     FM190300 VRB04KT P6SM VCTS BKN035CB 
     TEMPO 1903/1907 3SM TSRA BR OVC025CB 
     FM190800 09005KT 6SM BR BKN025 
     FM191100 05005KT 6SM BR OVC007 
     FM191600 04005KT 6SM BR OVC015
       
KTKX 181835Z AUTO 22007KT 9SM BKN026 BKN032 OVC043 29/22 A2987 RMK AO2
KIRK 181755Z AUTO 00000KT 10SM BKN031 26/16 A2996 RMK AO2 SLP143 T02560161 10256 20183
KLBO 181835Z AUTO 01003KT 10SM SCT021 27/19 A2996 RMK AO2
KLXT 181753Z AUTO VRB03KT 10SM SCT025 OVC037 25/18 A2994 RMK AO2 SLP132 T02500178 10256 20172 58007
KMAW 181835Z AUTO 31007KT 10SM SCT025 SCT031 28/21 A2991 RMK AO2
KMHL 181835Z AUTO 29006KT 10SM SCT016 SCT024 OVC031 23/19 A2995 RMK AO2 TSNO
KEVU 181835Z AUTO 11005KT 10SM SCT036 28/06 A2991 RMK AO2
KMYJ 181835Z AUTO 35003KT 7SM OVC042 25/20 A2995 RMK AO2
KHFJ 181835Z AUTO 00000KT 10SM SCT033 SCT039 SCT060 27/18 A2993 RMK AO2
KGPH 181835Z AUTO 00000KT 10SM SCT027 OVC037 25/16 A2993 RMK AO2
KPOF 181753Z AUTO 21004KT 10SM FEW021 BKN034 BKN070 26/22 A2991 RMK AO2 SLP122 T02610217 10272 20217 58005
KVIH 181839Z AUTO 36007KT 10SM -RA FEW018 BKN028 OVC055 24/21 A2994 RMK AO2 RAB1758E08B34 P0000 T02390206
KSET 181754Z AUTO A2991 RMK AO2 SLPNO 58003 PWINO $
KSTJ 181753Z 09005KT 10SM CLR 27/17 A2992 RMK AO2 SLP125 T02670172 10267 20183 58008
KSTJ 181731Z 1818/1918 12005KT P6SM VCSH SCT035 BKN200 
     FM190300 VRB04KT P6SM VCTS BKN035CB 
     FM190800 09005KT 6SM BR BKN025 
     FM191100 05005KT 6SM BR OVC007 
     FM191600 04005KT 6SM BR OVC015
       
KSTL 181751Z VRB04KT 10SM -RA BKN032TCU BKN070 27/19 A2992 RMK AO2 RAB48 SLP123 TCU N-SE P0000 60000 T02670194 10272 20211 58002
KSTL 181735Z 1818/1924 03005KT P6SM VCSH BKN030 
     FM182200 03005KT P6SM SCT035 
     FM190100 VRB03KT P6SM SCT120 
     FM190900 VRB03KT 6SM BR VCSH BKN035 
     FM191500 18007KT 5SM -RA BR VCTS OVC030CB
       
KSUS 181754Z 32005KT 6SM HZ FEW029 28/20 A2991 RMK AO2 SLP120 T02780200 10278 20217 58005
KSUS 181735Z 1818/1918 02004KT P6SM VCSH BKN035 
     FM182200 03004KT P6SM SCT035 
     FM190100 VRB03KT P6SM SCT120 
     FM190900 VRB03KT 6SM BR VCSH BKN035 
     FM191500 18006KT 5SM -RA BR VCTS OVC030CB
       
KDMO 181801Z AUTO 07006KT 10SM BKN016 OVC024 24/21 A2995 RMK AO2 T02390206
KSIK 181835Z AUTO 00000KT 10SM SCT030 29/21 A2989 RMK AO2
KSGF 181820Z 03004KT 10SM BKN028 BKN048 27/19 A2993 RMK AO2 T02670189
KSGF 181744Z 1818/1918 VRB03KT P6SM SCT025 
     FM182100 VRB04KT P6SM BKN250 
     FM190600 17006KT P6SM VCTS SCT025 BKN050CB 
     TEMPO 1906/1910 4SM -TSRA BR OVC025CB 
     FM191000 18008KT 4SM -TSRA BR OVC015CB 
     FM191400 21010KT P6SM OVC007
       
KRCM 181835Z AUTO 03005KT 10SM SCT020 SCT025 OVC034 24/18 A2994 RMK AO2
KRAW 181835Z AUTO 00000KT 10SM SCT025 SCT039 A2994 RMK AO2
KFYG 181815Z AUTO 29004KT 9SM FEW022 SCT034 25/21 A2991 RMK AO2
KUNO 181753Z AUTO 00000KT 10SM OVC050 25/20 A2996 RMK AO2 RAE16 SLP132 P0000 60000 T02500200 10256 20200 52001